createdAt,value
2018-12-31T06:01:53.657Z,13.03
2018-12-31T06:04:24.305Z,10.63
2018-12-31T06:06:54.925Z,13.20
2018-12-31T06:09:25.581Z,12.97
2018-12-31T06:11:56.276Z,13.20
2018-12-31T06:14:26.991Z,12.93
2018-12-31T06:16:57.690Z,14.23
2018-12-31T06:19:28.354Z,11.30
2018-12-31T06:21:59.036Z,9.20
2018-12-31T06:24:29.757Z,12.30
2018-12-31T06:27:00.369Z,11.20
2018-12-31T06:29:31.105Z,13.70
2018-12-31T06:32:01.722Z,11.00
2018-12-31T06:34:32.437Z,12.73
2018-12-31T06:37:03.044Z,14.63
2018-12-31T06:39:33.677Z,14.47
2018-12-31T06:42:04.314Z,16.60
2018-12-31T06:44:34.949Z,15.83
2018-12-31T06:47:05.569Z,28.50
2018-12-31T06:49:36.130Z,29.73
2018-12-31T06:52:06.682Z,18.63
2018-12-31T06:54:37.242Z,21.77
2018-12-31T06:57:07.873Z,28.87
2018-12-31T06:59:38.517Z,16.10
2018-12-31T07:02:09.129Z,17.37
2018-12-31T07:04:39.701Z,10.53
2018-12-31T07:07:10.345Z,17.23
2018-12-31T07:09:41.285Z,15.87
2018-12-31T07:12:11.985Z,19.80
2018-12-31T07:14:42.551Z,15.40
2018-12-31T07:17:13.265Z,11.40
2018-12-31T07:19:44.001Z,13.57
2018-12-31T07:22:14.533Z,12.57
2018-12-31T07:24:45.390Z,18.23
2018-12-31T07:27:16.179Z,19.73
2018-12-31T07:29:47.329Z,12.67
2018-12-31T07:32:18.074Z,16.43
2018-12-31T07:34:48.743Z,10.30
2018-12-31T07:37:19.437Z,15.00
2018-12-31T07:39:50.219Z,18.40
2018-12-31T07:42:20.921Z,12.13
2018-12-31T07:44:51.510Z,16.77
2018-12-31T07:47:22.222Z,17.13
2018-12-31T07:49:53.581Z,13.90
2018-12-31T07:52:24.210Z,14.60
2018-12-31T07:54:55.906Z,14.00
2018-12-31T07:57:26.567Z,15.37
2018-12-31T07:59:57.351Z,13.60
2018-12-31T08:02:28.046Z,13.27
2018-12-31T08:04:58.812Z,12.70
2018-12-31T08:07:29.541Z,14.57
2018-12-31T08:10:00.204Z,15.87
2018-12-31T08:12:30.939Z,11.50
2018-12-31T08:15:01.689Z,12.30
2018-12-31T08:17:33.161Z,11.10
2018-12-31T08:20:05.041Z,15.17
2018-12-31T08:22:36.541Z,17.43
2018-12-31T08:25:07.202Z,16.37
2018-12-31T08:27:37.918Z,14.00
2018-12-31T08:30:08.670Z,16.60
2018-12-31T08:32:39.379Z,11.77
2018-12-31T08:35:10.040Z,14.50
2018-12-31T08:37:40.736Z,16.80
2018-12-31T08:40:11.449Z,14.47
2018-12-31T08:42:42.093Z,12.53
2018-12-31T08:45:12.770Z,16.50
2018-12-31T08:47:43.485Z,12.67
2018-12-31T08:50:14.149Z,13.00
2018-12-31T08:52:46.105Z,11.50
2018-12-31T08:55:17.276Z,9.70
2018-12-31T08:57:48.753Z,11.00
2018-12-31T09:00:19.601Z,11.60
2018-12-31T09:02:50.317Z,8.87
2018-12-31T09:05:21.038Z,8.93
2018-12-31T09:07:51.734Z,9.70
2018-12-31T09:10:22.398Z,10.23
2018-12-31T09:12:53.034Z,11.47
2018-12-31T09:15:23.694Z,11.20
2018-12-31T09:17:54.425Z,10.43
2018-12-31T09:20:25.070Z,9.30
2018-12-31T09:22:55.837Z,8.40
2018-12-31T09:25:26.417Z,8.10
2018-12-31T09:27:57.109Z,7.93
2018-12-31T09:30:27.750Z,9.43
2018-12-31T09:32:58.458Z,14.00
2018-12-31T09:35:29.081Z,10.53
2018-12-31T09:37:59.797Z,11.43
2018-12-31T09:40:30.630Z,13.27
2018-12-31T09:43:01.284Z,13.83
2018-12-31T09:45:32.006Z,17.10
2018-12-31T09:48:02.814Z,13.40
2018-12-31T09:50:33.512Z,11.83
2018-12-31T09:53:04.222Z,11.93
2018-12-31T09:55:34.845Z,10.70
2018-12-31T09:58:05.468Z,9.90
2018-12-31T10:00:36.421Z,15.80
2018-12-31T10:03:11.180Z,10.77
2018-12-31T10:05:41.938Z,10.70
2018-12-31T10:08:12.578Z,10.37
2018-12-31T10:10:43.269Z,12.97
2018-12-31T10:13:13.900Z,10.13
2018-12-31T10:15:44.600Z,10.70
2018-12-31T10:18:15.165Z,8.47
2018-12-31T10:20:45.790Z,8.97
2018-12-31T10:23:23.786Z,10.37
2018-12-31T10:25:54.951Z,10.53
2018-12-31T10:28:25.627Z,9.90
2018-12-31T10:30:56.364Z,9.60
2018-12-31T10:33:27.507Z,10.90
2018-12-31T10:35:58.007Z,10.60
2018-12-31T10:38:29.637Z,11.07
2018-12-31T10:41:00.410Z,10.50
2018-12-31T10:43:31.109Z,8.77
2018-12-31T10:46:01.662Z,12.10
2018-12-31T10:48:32.405Z,9.17
2018-12-31T10:51:03.025Z,9.70
2018-12-31T10:53:35.654Z,8.67
2018-12-31T10:56:06.538Z,8.00
2018-12-31T10:58:37.398Z,8.00
2018-12-31T11:01:08.214Z,8.70
2018-12-31T11:03:38.997Z,8.77
2018-12-31T11:06:09.717Z,7.23
2018-12-31T11:08:40.727Z,7.47
2018-12-31T11:11:11.597Z,9.50
2018-12-31T11:13:42.438Z,7.73
2018-12-31T11:16:13.296Z,8.03
2018-12-31T11:18:44.194Z,8.30
2018-12-31T11:21:14.921Z,9.53
2018-12-31T11:23:45.638Z,9.30
2018-12-31T11:26:16.283Z,10.03
2018-12-31T11:28:47.018Z,8.60
2018-12-31T11:31:17.683Z,7.77
2018-12-31T11:33:47.995Z,9.47
2018-12-31T11:36:18.580Z,8.97
2018-12-31T11:38:50.070Z,11.43
2018-12-31T11:41:20.209Z,10.53
2018-12-31T11:43:50.989Z,10.43
2018-12-31T11:46:21.847Z,9.40
2018-12-31T11:48:54.758Z,12.20
2018-12-31T11:51:27.004Z,12.50
2018-12-31T11:53:57.599Z,7.60
2018-12-31T11:56:28.402Z,10.17
2018-12-31T11:58:59.174Z,8.53
2018-12-31T12:01:30.933Z,7.87
2018-12-31T12:04:01.641Z,11.23
2018-12-31T12:06:35.706Z,13.23
2018-12-31T12:09:07.493Z,9.60
2018-12-31T12:11:38.246Z,8.90
2018-12-31T12:14:10.160Z,13.17
2018-12-31T12:16:41.036Z,8.30
2018-12-31T12:19:12.912Z,11.63
2018-12-31T12:21:44.141Z,10.33
2018-12-31T12:24:15.626Z,9.20
2018-12-31T12:27:37.655Z,8.43
2018-12-31T12:30:11.627Z,11.80
2018-12-31T12:32:45.488Z,9.00
2018-12-31T12:35:17.197Z,10.63
2018-12-31T12:37:48.709Z,15.40
2018-12-31T12:40:20.184Z,18.33
2018-12-31T12:42:52.190Z,11.70
2018-12-31T12:45:24.477Z,12.67
2018-12-31T12:47:55.903Z,13.80
2018-12-31T12:50:27.301Z,10.93
2018-12-31T12:52:58.972Z,10.30
2018-12-31T12:55:31.102Z,12.10
2018-12-31T12:58:02.274Z,9.30
2018-12-31T13:00:33.839Z,9.30
2018-12-31T13:03:04.478Z,9.70
2018-12-31T13:05:35.281Z,10.03
2018-12-31T13:08:05.914Z,10.50
2018-12-31T13:10:36.623Z,12.60
2018-12-31T13:13:07.237Z,12.03
2018-12-31T13:15:37.932Z,8.73
2018-12-31T13:18:08.621Z,10.70
2018-12-31T13:20:39.330Z,16.67
2018-12-31T13:23:09.962Z,12.43
2018-12-31T13:25:41.103Z,12.50
2018-12-31T13:28:11.725Z,11.50
2018-12-31T13:30:42.346Z,9.57
2018-12-31T13:33:12.953Z,12.20
2018-12-31T13:35:43.581Z,10.73
2018-12-31T13:38:14.278Z,11.70
2018-12-31T13:40:44.997Z,12.77
2018-12-31T13:43:15.621Z,10.43
2018-12-31T13:45:46.398Z,9.93
2018-12-31T13:48:17.377Z,9.03
2018-12-31T13:50:48.001Z,9.77
2018-12-31T13:53:18.689Z,7.67
2018-12-31T13:55:49.330Z,7.77
2018-12-31T13:58:19.996Z,9.20
2018-12-31T14:00:50.697Z,13.30
2018-12-31T14:03:22.035Z,10.73
2018-12-31T14:05:54.069Z,10.20
2018-12-31T14:08:24.777Z,8.73
2018-12-31T14:10:55.521Z,9.10
2018-12-31T14:13:26.218Z,10.80
2018-12-31T14:15:56.888Z,8.30
2018-12-31T14:18:27.566Z,8.60
2018-12-31T14:20:58.769Z,13.97
2018-12-31T14:23:29.453Z,9.27
2018-12-31T14:26:00.147Z,8.90
2018-12-31T14:28:30.737Z,9.70
2018-12-31T14:31:01.364Z,11.07
2018-12-31T14:33:32.049Z,9.93
2018-12-31T14:36:02.764Z,13.10
2018-12-31T14:38:33.457Z,24.40
2018-12-31T14:41:05.288Z,16.90
2018-12-31T14:43:35.898Z,14.90
2018-12-31T14:46:06.702Z,13.23
2018-12-31T14:48:37.399Z,15.23
2018-12-31T14:51:08.154Z,13.20
2018-12-31T14:53:39.134Z,14.97
2018-12-31T14:56:09.960Z,12.60
2018-12-31T14:58:40.699Z,12.40
2018-12-31T15:01:12.692Z,14.33
2018-12-31T15:03:44.019Z,13.93
2018-12-31T15:06:15.227Z,17.43
2018-12-31T15:08:47.031Z,11.80
2018-12-31T15:11:17.761Z,12.33
2018-12-31T15:13:48.945Z,12.13
2018-12-31T15:16:20.324Z,11.50
2018-12-31T15:18:51.934Z,12.50
2018-12-31T15:21:22.666Z,16.07
2018-12-31T15:23:53.658Z,17.30
2018-12-31T15:26:24.772Z,16.33
2018-12-31T15:28:55.802Z,14.97
2018-12-31T15:31:26.521Z,13.40
2018-12-31T15:33:57.351Z,17.70
2018-12-31T15:36:28.163Z,15.27
2018-12-31T15:38:59.761Z,11.67
2018-12-31T15:41:30.405Z,13.30
2018-12-31T15:44:01.357Z,14.93
2018-12-31T15:46:33.074Z,12.33
2018-12-31T15:49:04.007Z,17.60
2018-12-31T15:51:34.718Z,19.97
2018-12-31T15:54:05.510Z,20.33
2018-12-31T15:56:36.145Z,23.87
2018-12-31T15:59:09.028Z,24.73
2018-12-31T16:01:44.969Z,26.33
2018-12-31T16:04:15.848Z,20.80
2018-12-31T16:06:48.257Z,21.00
2018-12-31T16:09:19.402Z,24.10
2018-12-31T16:11:50.073Z,29.87
2018-12-31T16:14:25.479Z,33.50
2018-12-31T16:16:57.157Z,46.60
2018-12-31T16:19:29.899Z,45.30
2018-12-31T16:22:01.208Z,41.63
2018-12-31T16:24:32.420Z,29.67
2018-12-31T16:27:03.764Z,31.63
2018-12-31T16:29:35.418Z,26.53
2018-12-31T16:32:07.472Z,26.60
2018-12-31T16:34:39.595Z,32.97
2018-12-31T16:37:11.192Z,29.40
2018-12-31T16:39:42.435Z,36.23
2018-12-31T16:42:13.735Z,32.27
2018-12-31T16:44:46.460Z,25.53
2018-12-31T16:47:17.085Z,23.10
2018-12-31T16:49:52.967Z,23.50
2018-12-31T16:52:24.300Z,17.53
2018-12-31T16:54:56.192Z,15.53
2018-12-31T16:57:28.028Z,14.17
2018-12-31T17:00:04.212Z,20.23
2018-12-31T17:02:36.131Z,22.03
2018-12-31T17:05:08.616Z,20.80
2018-12-31T17:07:42.251Z,20.83
2018-12-31T17:10:15.747Z,20.67
2018-12-31T17:12:50.703Z,16.53
2018-12-31T17:15:22.390Z,18.93
2018-12-31T17:17:53.885Z,23.30
2018-12-31T17:20:27.333Z,24.23
2018-12-31T17:22:58.956Z,22.67
2018-12-31T17:25:30.717Z,24.80
2018-12-31T17:28:02.409Z,22.00
2018-12-31T17:30:34.244Z,19.53
2018-12-31T17:33:05.740Z,21.13
2018-12-31T17:35:37.584Z,21.77
2018-12-31T17:38:09.102Z,24.53
2018-12-31T17:40:40.326Z,28.63
2018-12-31T17:43:12.328Z,24.80
2018-12-31T17:45:43.557Z,25.23
2018-12-31T17:48:15.233Z,29.97
2018-12-31T17:50:47.340Z,31.37
2018-12-31T17:53:19.479Z,32.47
2018-12-31T17:55:50.352Z,38.50
2018-12-31T17:58:21.630Z,35.30
2018-12-31T18:00:52.396Z,29.30
2018-12-31T18:03:22.509Z,29.30
2018-12-31T18:05:53.417Z,41.50
2018-12-31T18:08:24.254Z,44.83
2018-12-31T18:10:55.508Z,37.47
2018-12-31T18:13:27.030Z,38.83
2018-12-31T18:15:58.578Z,41.90
2018-12-31T18:18:30.339Z,38.37
2018-12-31T18:21:01.858Z,36.20
2018-12-31T18:23:33.042Z,40.30
2018-12-31T18:26:04.651Z,37.87
2018-12-31T18:28:35.911Z,39.27
2018-12-31T18:31:07.422Z,39.03
2018-12-31T18:33:38.766Z,50.33
2018-12-31T18:36:10.568Z,47.50
2018-12-31T18:38:42.481Z,49.47
2018-12-31T18:41:13.894Z,44.77
2018-12-31T18:43:45.436Z,45.13
2018-12-31T18:46:17.114Z,44.47
2018-12-31T18:48:48.190Z,42.30
2018-12-31T18:51:18.997Z,40.50
2018-12-31T18:53:49.613Z,37.03
2018-12-31T18:56:20.329Z,34.73
2018-12-31T18:58:51.033Z,37.83
2018-12-31T19:01:22.321Z,33.57
2018-12-31T19:03:54.185Z,34.77
2018-12-31T19:06:31.839Z,36.97
2018-12-31T19:09:04.835Z,34.40
2018-12-31T19:11:36.376Z,38.23
2018-12-31T19:14:08.743Z,32.70
2018-12-31T19:16:42.302Z,34.30
2018-12-31T19:19:14.243Z,34.30
2018-12-31T19:21:47.469Z,70.30
2018-12-31T19:24:18.959Z,181.13
2018-12-31T19:26:50.325Z,74.70
2018-12-31T19:29:21.917Z,77.13
2018-12-31T19:31:53.605Z,59.00
2018-12-31T19:34:25.358Z,41.57
2018-12-31T19:36:57.038Z,41.87
2018-12-31T19:39:28.531Z,48.00
2018-12-31T19:42:00.248Z,44.73
2018-12-31T19:44:31.937Z,42.10
2018-12-31T19:47:04.299Z,47.10
2018-12-31T19:49:34.999Z,47.13
2018-12-31T19:52:05.786Z,48.80
2018-12-31T19:54:36.520Z,45.43
2018-12-31T19:57:07.234Z,43.47
2018-12-31T19:59:37.943Z,42.57
2018-12-31T20:02:09.197Z,45.70
2018-12-31T20:04:40.202Z,49.33
2018-12-31T20:07:10.920Z,43.77
2018-12-31T20:09:41.693Z,50.20
2018-12-31T20:12:12.422Z,44.10
2018-12-31T20:14:43.139Z,50.20
2018-12-31T20:17:13.874Z,51.27
2018-12-31T20:19:44.612Z,45.43
2018-12-31T20:22:15.515Z,48.50
2018-12-31T20:24:46.218Z,55.43
2018-12-31T20:27:17.233Z,50.40
2018-12-31T20:29:47.941Z,53.23
2018-12-31T20:32:18.588Z,61.07
2018-12-31T20:34:49.880Z,87.77
2018-12-31T20:37:21.253Z,88.70
2018-12-31T20:39:52.794Z,74.03
2018-12-31T20:42:24.638Z,88.27
2018-12-31T20:44:55.872Z,95.30
2018-12-31T20:47:27.633Z,243.97
2018-12-31T20:49:59.175Z,120.93
2018-12-31T20:52:30.676Z,73.77
2018-12-31T20:55:01.805Z,70.27
2018-12-31T20:57:33.160Z,72.93
2018-12-31T21:00:05.204Z,68.60
2018-12-31T21:02:37.740Z,63.43
2018-12-31T21:05:09.341Z,57.57
2018-12-31T21:07:40.349Z,58.83
2018-12-31T21:10:12.122Z,58.37
2018-12-31T21:12:46.374Z,62.17
2018-12-31T21:15:17.690Z,51.60
2018-12-31T21:17:48.472Z,47.30
2018-12-31T21:20:20.823Z,45.60
2018-12-31T21:22:52.731Z,52.87
2018-12-31T21:25:23.451Z,58.10
2018-12-31T21:27:54.179Z,56.90
2018-12-31T21:30:24.886Z,51.90
2018-12-31T21:32:55.537Z,55.87
2018-12-31T21:35:26.689Z,50.40
2018-12-31T21:37:57.429Z,49.10
2018-12-31T21:40:28.330Z,62.23
2018-12-31T21:42:59.085Z,67.00
2018-12-31T21:45:29.797Z,56.87
2018-12-31T21:48:00.518Z,74.83
2018-12-31T21:50:31.143Z,90.93
2018-12-31T21:53:01.869Z,87.00
2018-12-31T21:55:32.776Z,78.70
2018-12-31T21:58:04.101Z,85.53
2018-12-31T22:00:34.815Z,91.17
2018-12-31T22:03:05.729Z,97.57
2018-12-31T22:05:36.619Z,89.43
2018-12-31T22:08:08.442Z,80.83
2018-12-31T22:10:39.294Z,91.23
2018-12-31T22:13:10.351Z,80.77
2018-12-31T22:15:41.053Z,84.63
2018-12-31T22:18:11.876Z,77.07
2018-12-31T22:20:42.582Z,90.83
2018-12-31T22:23:13.514Z,93.30
2018-12-31T22:25:44.525Z,86.40
2018-12-31T22:28:15.178Z,80.17
2018-12-31T22:30:45.873Z,80.70
2018-12-31T22:33:17.166Z,79.93
2018-12-31T22:35:48.377Z,78.73
2018-12-31T22:38:19.147Z,71.70
2018-12-31T22:40:49.801Z,67.63
2018-12-31T22:43:20.553Z,62.47
2018-12-31T22:45:51.181Z,65.50
2018-12-31T22:48:22.931Z,66.80
2018-12-31T22:50:53.914Z,131.40
2018-12-31T22:53:24.801Z,151.37
2018-12-31T22:55:55.702Z,148.53
2018-12-31T22:58:26.376Z,113.10
2018-12-31T23:00:57.434Z,102.13
2018-12-31T23:03:28.232Z,105.37
2018-12-31T23:05:58.887Z,126.77
2018-12-31T23:08:29.617Z,195.77
2018-12-31T23:11:00.457Z,491.40
2018-12-31T23:13:34.993Z,491.23
2018-12-31T23:16:05.816Z,461.53
2018-12-31T23:18:36.582Z,595.77
2018-12-31T23:21:07.290Z,516.87
2018-12-31T23:23:38.012Z,712.87
2018-12-31T23:26:08.737Z,737.27
2018-12-31T23:28:39.865Z,855.27
2018-12-31T23:31:10.579Z,826.20
2018-12-31T23:33:41.273Z,863.20
2018-12-31T23:36:12.969Z,857.57
2018-12-31T23:38:43.742Z,825.90
2018-12-31T23:41:15.152Z,486.13
2018-12-31T23:43:47.130Z,311.40
2018-12-31T23:46:17.924Z,311.13
2018-12-31T23:48:48.998Z,338.87
2018-12-31T23:51:19.995Z,629.13
2018-12-31T23:53:51.361Z,830.27
2018-12-31T23:56:22.108Z,858.87
2018-12-31T23:58:54.228Z,851.80
